AirNav   Advertisement
 
 615 users online  

MA36 Snow Airport
Ipswich, Massachusetts, USA

GOING TO IPSWICH?


FAA INFORMATION EFFECTIVE 20 JULY 2017

Location

FAA Identifier: MA36
Lat/Long: 42-39-59.3370N / 070-51-10.6800W
42-39.988950N / 070-51.178000W
42.6664825 / -70.8529667
(estimated)
Elevation: 61 ft. / 18.6 m (surveyed)
Variation: 16W (1985)
From city: 1 mile SW of IPSWICH, MA
Time zone: UTC -4 (UTC -5 during Standard Time)
Zip code: 01938

Airport Operations

Airport use: Private use. Permission required prior to landing
Activation date: 09/1950
Control tower: no
ARTCC: BOSTON CENTER
FSS: BRIDGEPORT FLIGHT SERVICE STATION
Attendance: CONTINUOUS
Wind indicator: no
Segmented circle: no

Airport Communications

WX ASOS at BVY (6 nm SW): PHONE 978-921-5042
WX ASOS at LWM (12 nm W): 126.75 (978-687-8017)
WX ASOS at BOS (19 nm S): PHONE 617-567-5762

Nearby radio navigation aids

VOR radial/distance  VOR name  Freq  Var
LWMr128/11.6LAWRENCE VOR/DME112.5015W
BOSr034/19.5BOSTON VOR/DME112.7016W
PSMr198/25.1PEASE VOR/DME116.5016W
MHTr133/25.8MANCHESTER VOR/DME114.4015W

 
NDB name  Hdg/Dist  Freq  Var  ID
SHAKER HILL065/19.225116WSKR ... -.- .-.
ROLLINS198/33.226016WESG . ... --.
MARSHFIELD003/35.036816WIMR .. -- .-.

Airport Services

Fuel available: 100LL
Airframe service: NONE
Powerplant service: NONE

Runway Information

Runway 4/22

Dimensions: 1600 x 100 ft. / 488 x 30 m
Surface: turf
RUNWAY 4  RUNWAY 22
Traffic pattern: leftleft

Airport Ownership and Management from official FAA records

Ownership: Privately-owned
Owner: CROCKER SNOW
120 TOPSFIELD RD
IPSWICH, MA 01938-1665
Phone 978-395-1961
Manager: CROCKER SNOW
120 TOPSFIELD RD
IPSWICH, MA 01938-1665
Phone 978-356-4422

Airport Operational Statistics

Aircraft based on the field: 1
Single engine airplanes: 1
    

Instrument Procedures

There are no published instrument procedures at MA36.

Some nearby airports with instrument procedures:

KBVY - Beverly Regional Airport (6 nm SW)
KLWM - Lawrence Municipal Airport (12 nm W)
KBOS - General Edward Lawrence Logan International Airport (19 nm S)
KBED - Laurence G Hanscom Field Airport (23 nm SW)
KPSM - Portsmouth International Airport at Pease (25 nm N)
 
Loc | Ops | Rwys | IFR | FBO | Links
Com | Nav | Svcs | Stats | Notes


 
Area around MA36 (Snow Airport)
 
Road maps at: MapQuest Bing Google
 
Aerial photo
No photo
 
Sectional chart

 
Airport distance calculator
Flying to Snow Airport? Find the distance to fly.

From to MA36

Sunrise and sunset
Times for 21-Jul-2017
 Local
(UTC-4)
 Zulu
(UTC)
Morning civil twilight04:5208:52
Sunrise05:2509:25
Sunset20:1400:14
Evening civil twilight20:4800:48

Current date and time
Zulu (UTC)  21-Jul-2017 11:36:04
Local (UTC-4)  21-Jul-2017 07:36:04
 
METAR
KBVY 
6nm SW 
211053Z 31005KT 10SM CLR 22/18 A2983 RMK AO2 SLP097 T02170183
KLWM 
13nm W 
211054Z 00000KT 10SM CLR 22/18 A2986 RMK AO2 SLP111 T02220178
KBOS 
19nm S 
211054Z 28006KT 10SM FEW150 FEW250 23/16 A2985 RMK AO2 SLP107 T02330161 $
TAF
KBOS 
19nm S 
210814Z 2108/2212 27006KT P6SM FEW250 FM211800 28007G16KT P6SM SCT040 FM212300 27010KT P6SM FEW250 FM220200 27010KT P6SM FEW150
KBED 
23nm SW 
210814Z 2108/2206 VRB03KT 3SM BR FEW250 FM211000 VRB03KT P6SM SKC FM211700 28005KT P6SM FEW040 FM212100 27010KT P6SM FEW250 FM220000 27006KT P6SM FEW250
KPSM 
24nm N 
210904Z 2109/2206 28004KT P6SM SKC FM211800 21009KT P6SM FEW100
NOTAMs
Click for the latest NOTAMs
NOTAMs are issued by the DoD/FAA and will open in a separate window not controlled by AirNav.

 

 
 

Would you like to see your business listed on this page?

 If your business provides an interesting product or service to pilots, flight crews, aircraft, or users of the Snow Airport, you should consider listing it here.  To start the listing process, click on the button below
 
Add a business
 

Other Pages about Snow Airport

Update a link
 
Copyright © AirNav, LLC. All rights reserved. Privacy Policy  Contact